createdAt,value
2023-03-30T00:01:01.181Z,98400.06
2023-03-30T00:03:28.897Z,98400.00
2023-03-30T00:05:59.011Z,98397.16
2023-03-30T00:08:29.363Z,98393.91
2023-03-30T00:11:04.446Z,98388.59
2023-03-30T00:13:32.536Z,98384.13
2023-03-30T00:15:59.670Z,98384.69
2023-03-30T00:18:26.753Z,98383.03
2023-03-30T00:20:53.709Z,98379.00
2023-03-30T00:23:20.805Z,98381.72
2023-03-30T00:25:48.178Z,98377.34
2023-03-30T00:28:15.005Z,98375.47
2023-03-30T00:30:42.143Z,98377.69
2023-03-30T00:33:09.113Z,98372.41
2023-03-30T00:35:36.549Z,98370.28
2023-03-30T00:38:03.609Z,98367.03
2023-03-30T00:40:32.801Z,98357.03
2023-03-30T00:43:04.524Z,98365.44
2023-03-30T00:45:32.811Z,98363.66
2023-03-30T00:48:12.044Z,98356.84
2023-03-30T00:50:43.856Z,98350.13
2023-03-30T00:53:43.874Z,98346.56
2023-03-30T00:56:13.009Z,98346.19
2023-03-30T00:58:40.771Z,98336.75
2023-03-30T01:01:10.588Z,98337.31
2023-03-30T01:03:46.313Z,98329.66
2023-03-30T01:06:14.675Z,98326.38
2023-03-30T01:08:42.935Z,98331.00
2023-03-30T01:11:09.849Z,98335.28
2023-03-30T01:13:38.952Z,98334.53
2023-03-30T01:16:06.295Z,98330.78
2023-03-30T01:18:45.012Z,98331.78
2023-03-30T01:21:33.069Z,98334.84
2023-03-30T01:24:37.329Z,98325.97
2023-03-30T01:27:32.590Z,98322.75
2023-03-30T01:30:14.641Z,98315.16
2023-03-30T01:33:05.782Z,98313.91
2023-03-30T01:35:46.932Z,98306.06
2023-03-30T01:38:53.939Z,98299.09
2023-03-30T01:41:37.682Z,98289.69
2023-03-30T01:44:37.627Z,98280.41
2023-03-30T01:47:11.621Z,98273.22
2023-03-30T01:50:00.339Z,98295.00
2023-03-30T01:52:30.545Z,98302.37
2023-03-30T01:55:15.795Z,98298.00
2023-03-30T01:57:48.245Z,98303.25
2023-03-30T02:00:19.191Z,98289.78
2023-03-30T02:02:49.572Z,98278.53
2023-03-30T02:05:18.317Z,98286.72
2023-03-30T02:07:51.009Z,98288.78
2023-03-30T02:10:19.052Z,98290.31
2023-03-30T02:12:47.293Z,98295.25
2023-03-30T02:15:15.536Z,98287.75
2023-03-30T02:17:43.691Z,98281.53
2023-03-30T02:20:12.409Z,98275.81
2023-03-30T02:22:39.700Z,98272.75
2023-03-30T02:25:06.906Z,98273.97
2023-03-30T02:27:35.099Z,98275.59
2023-03-30T02:30:01.989Z,98273.38
2023-03-30T02:32:33.779Z,98270.87
2023-03-30T02:35:27.565Z,98269.53
2023-03-30T02:38:18.921Z,98272.75
2023-03-30T02:40:59.341Z,98274.75
2023-03-30T02:43:51.160Z,98277.69
2023-03-30T02:46:20.751Z,98283.06
2023-03-30T02:49:00.125Z,98282.06
2023-03-30T02:51:43.695Z,98294.19
2023-03-30T02:54:20.880Z,98295.88
2023-03-30T02:56:56.053Z,98292.84
2023-03-30T02:59:28.572Z,98282.81
2023-03-30T03:01:59.657Z,98278.87
2023-03-30T03:04:28.677Z,98273.72
2023-03-30T03:06:56.171Z,98267.84
2023-03-30T03:09:26.347Z,98252.53
2023-03-30T03:11:53.333Z,98255.00
2023-03-30T03:14:21.234Z,98269.88
2023-03-30T03:16:48.335Z,98274.53
2023-03-30T03:19:16.216Z,98257.50
2023-03-30T03:21:43.121Z,98262.97
2023-03-30T03:24:10.125Z,98270.84
2023-03-30T03:26:36.974Z,98269.78
2023-03-30T03:29:03.849Z,98262.44
2023-03-30T03:31:31.029Z,98244.22
2023-03-30T03:33:57.895Z,98244.62
2023-03-30T03:36:24.737Z,98263.97
2023-03-30T03:38:52.399Z,98234.31
2023-03-30T03:41:19.385Z,98228.44
2023-03-30T03:43:47.034Z,98230.28
2023-03-30T03:46:14.256Z,98243.66
2023-03-30T03:48:41.228Z,98241.41
2023-03-30T03:51:09.458Z,98230.84
2023-03-30T03:53:36.445Z,98234.78
2023-03-30T03:56:03.834Z,98233.13
2023-03-30T03:58:30.822Z,98242.75
2023-03-30T04:00:59.868Z,98247.91
2023-03-30T04:03:27.276Z,98248.63
2023-03-30T04:05:54.311Z,98239.97
2023-03-30T04:08:21.374Z,98245.78
2023-03-30T04:10:48.463Z,98250.28
2023-03-30T04:13:15.502Z,98243.84
2023-03-30T04:15:42.384Z,98254.94
2023-03-30T04:18:09.358Z,98249.25
2023-03-30T04:20:36.292Z,98251.75
2023-03-30T04:23:03.194Z,98254.53
2023-03-30T04:25:30.129Z,98252.38
2023-03-30T04:27:57.565Z,98245.91
2023-03-30T04:30:24.491Z,98243.94
2023-03-30T04:33:03.045Z,98236.91
2023-03-30T04:35:34.131Z,98232.66
2023-03-30T04:38:02.405Z,98235.63
2023-03-30T04:40:29.724Z,98228.13
2023-03-30T04:43:02.409Z,98234.72
2023-03-30T04:45:30.904Z,98216.78
2023-03-30T04:47:57.868Z,98230.31
2023-03-30T04:50:24.948Z,98223.53
2023-03-30T04:52:51.796Z,98221.53
2023-03-30T04:55:18.637Z,98215.25
2023-03-30T04:57:45.506Z,98207.47
2023-03-30T05:00:13.816Z,98207.34
2023-03-30T05:02:41.265Z,98200.44
2023-03-30T05:05:08.600Z,98206.91
2023-03-30T05:07:35.576Z,98206.97
2023-03-30T05:10:02.525Z,98199.22
2023-03-30T05:12:29.444Z,98201.66
2023-03-30T05:14:56.269Z,98201.03
2023-03-30T05:17:23.267Z,98205.00
2023-03-30T05:19:50.196Z,98197.47
2023-03-30T05:22:17.168Z,98200.38
2023-03-30T05:24:44.055Z,98200.81
2023-03-30T05:27:10.906Z,98203.09
2023-03-30T05:29:37.740Z,98231.59
2023-03-30T05:32:04.677Z,98232.94
2023-03-30T05:34:31.546Z,98221.59
2023-03-30T05:36:58.456Z,98227.00
2023-03-30T05:39:25.400Z,98220.81
2023-03-30T05:41:52.591Z,98232.00
2023-03-30T05:44:21.929Z,98227.03
2023-03-30T05:46:49.565Z,98221.84
2023-03-30T05:49:16.555Z,98221.31
2023-03-30T05:51:43.471Z,98221.09
2023-03-30T05:54:12.776Z,98219.53
2023-03-30T05:56:40.871Z,98218.03
2023-03-30T05:59:08.669Z,98214.69
2023-03-30T06:01:35.516Z,98222.09
2023-03-30T06:04:02.507Z,98211.78
2023-03-30T06:06:29.603Z,98211.66
2023-03-30T06:08:56.514Z,98210.81
2023-03-30T06:11:23.443Z,98215.28
2023-03-30T06:13:50.450Z,98215.13
2023-03-30T06:16:17.384Z,98216.44
2023-03-30T06:18:44.244Z,98210.25
2023-03-30T06:21:11.898Z,98211.03
2023-03-30T06:23:41.010Z,98201.81
2023-03-30T06:26:07.997Z,98204.78
2023-03-30T06:28:34.989Z,98201.03
2023-03-30T06:31:03.366Z,98213.03
2023-03-30T06:33:30.548Z,98223.34
2023-03-30T06:35:58.156Z,98225.41
2023-03-30T06:38:25.134Z,98219.00
2023-03-30T06:40:52.233Z,98228.56
2023-03-30T06:43:21.982Z,98221.66
2023-03-30T06:45:53.199Z,98226.22
2023-03-30T06:48:24.043Z,98219.19
2023-03-30T06:50:52.281Z,98219.53
2023-03-30T06:53:20.330Z,98230.38
2023-03-30T06:55:55.036Z,98233.97
2023-03-30T06:58:22.203Z,98242.72
2023-03-30T07:00:49.606Z,98235.50
2023-03-30T07:03:19.151Z,98240.72
2023-03-30T07:05:49.618Z,98232.22
2023-03-30T07:08:17.574Z,98240.84
2023-03-30T07:10:44.542Z,98237.06
2023-03-30T07:13:11.472Z,98239.81
2023-03-30T07:15:38.323Z,98229.28
2023-03-30T07:18:05.360Z,98221.91
2023-03-30T07:20:32.242Z,98216.94
2023-03-30T07:22:59.092Z,98233.78
2023-03-30T07:25:25.968Z,98231.72
2023-03-30T07:27:52.986Z,98225.94
2023-03-30T07:30:22.136Z,98215.53
2023-03-30T07:32:54.356Z,98201.63
2023-03-30T07:35:22.848Z,98205.22
2023-03-30T07:37:51.010Z,98208.06
2023-03-30T07:40:18.831Z,98213.47
2023-03-30T07:42:45.937Z,98215.25
2023-03-30T07:45:15.614Z,98209.66
2023-03-30T07:47:43.330Z,98212.75
2023-03-30T07:50:10.444Z,98221.47
2023-03-30T07:52:38.333Z,98220.19
2023-03-30T07:55:05.693Z,98216.63
2023-03-30T07:57:32.671Z,98222.78
2023-03-30T07:59:59.652Z,98222.25
2023-03-30T08:02:27.417Z,98215.84
2023-03-30T08:04:54.603Z,98210.25
2023-03-30T08:07:21.583Z,98212.56
2023-03-30T08:09:48.417Z,98212.88
2023-03-30T08:12:15.359Z,98206.06
2023-03-30T08:14:42.320Z,98202.06
2023-03-30T08:17:09.231Z,98211.34
2023-03-30T08:19:36.193Z,98217.75
2023-03-30T08:22:03.344Z,98220.59
2023-03-30T08:24:30.448Z,98230.16
2023-03-30T08:26:57.340Z,98223.84
2023-03-30T08:29:24.442Z,98219.66
2023-03-30T08:31:52.314Z,98217.47
2023-03-30T08:34:19.434Z,98200.03
2023-03-30T08:36:46.338Z,98183.34
2023-03-30T08:39:13.228Z,98191.34
2023-03-30T08:41:43.987Z,98192.16
2023-03-30T08:44:23.006Z,98185.91
2023-03-30T08:46:50.796Z,98198.09
2023-03-30T08:49:20.011Z,98199.88
2023-03-30T08:51:49.730Z,98199.50
2023-03-30T08:54:22.103Z,98200.13
2023-03-30T08:57:03.718Z,98209.34
2023-03-30T08:59:33.205Z,98205.16
2023-03-30T09:02:24.975Z,98188.13
2023-03-30T09:04:58.154Z,98186.56
2023-03-30T09:07:38.801Z,98187.28
2023-03-30T09:10:12.710Z,98174.78
2023-03-30T09:12:53.180Z,98175.91
2023-03-30T09:15:37.038Z,98175.72
2023-03-30T09:18:14.076Z,98172.81
2023-03-30T09:20:41.612Z,98169.06
2023-03-30T09:23:14.352Z,98164.03
2023-03-30T09:26:13.404Z,98170.69
2023-03-30T09:28:58.676Z,98162.72
2023-03-30T09:31:34.322Z,98169.13
2023-03-30T09:34:07.158Z,98166.34
2023-03-30T09:37:18.962Z,98160.94
2023-03-30T09:39:46.680Z,98150.66
2023-03-30T09:42:38.246Z,98155.13
2023-03-30T09:45:15.742Z,98152.50
2023-03-30T09:47:43.075Z,98147.91
2023-03-30T09:50:13.329Z,98148.16
2023-03-30T09:52:41.746Z,98147.63
2023-03-30T09:55:29.041Z,98135.97
2023-03-30T09:58:21.156Z,98128.44
2023-03-30T10:01:04.014Z,98127.63
2023-03-30T10:03:31.079Z,98125.22
2023-03-30T10:06:07.767Z,98118.69
2023-03-30T10:08:42.244Z,98114.75
2023-03-30T10:11:09.608Z,98111.22
2023-03-30T10:13:41.844Z,98106.94
2023-03-30T10:16:35.099Z,98104.84
2023-03-30T10:19:05.687Z,98109.59
2023-03-30T10:21:37.459Z,98107.00
2023-03-30T10:24:14.801Z,98105.66
2023-03-30T10:26:44.973Z,98103.44
2023-03-30T10:29:21.992Z,98103.72
2023-03-30T10:31:52.164Z,98096.81
2023-03-30T10:34:21.945Z,98091.69
2023-03-30T10:36:53.957Z,98100.16
2023-03-30T10:39:29.943Z,98099.19
2023-03-30T10:41:59.696Z,98096.47
2023-03-30T10:44:36.254Z,98091.38
2023-03-30T10:47:09.116Z,98085.47
2023-03-30T10:50:03.987Z,98088.50
2023-03-30T10:52:48.810Z,98083.88
2023-03-30T10:55:32.656Z,98084.53
2023-03-30T10:58:37.533Z,98082.72
2023-03-30T11:02:21.231Z,98087.16
2023-03-30T11:05:04.363Z,98090.44
2023-03-30T11:07:55.027Z,98080.06
2023-03-30T11:10:27.532Z,98083.50
2023-03-30T11:12:59.147Z,98084.91
2023-03-30T11:15:29.895Z,98077.50
2023-03-30T11:18:07.469Z,98091.28
2023-03-30T11:20:40.048Z,98090.66
2023-03-30T11:23:14.343Z,98081.78
2023-03-30T11:25:47.944Z,98082.41
2023-03-30T11:28:36.619Z,98067.88
2023-03-30T11:31:12.132Z,98072.09
2023-03-30T11:33:59.056Z,98073.19
2023-03-30T11:36:36.448Z,98065.34
2023-03-30T11:39:07.796Z,98068.62
2023-03-30T11:41:46.196Z,98063.34
2023-03-30T11:44:13.233Z,98056.63
2023-03-30T11:46:41.509Z,98047.84
2023-03-30T11:49:17.935Z,98051.72
2023-03-30T11:51:57.364Z,98040.84
2023-03-30T11:54:52.694Z,98033.91
2023-03-30T11:57:34.896Z,98031.62
2023-03-30T12:00:23.569Z,98026.78
2023-03-30T12:03:09.320Z,98019.59
2023-03-30T12:05:40.238Z,98012.50
2023-03-30T12:08:22.996Z,98000.38
2023-03-30T12:10:56.831Z,98003.16
2023-03-30T12:13:26.106Z,97995.34
2023-03-30T12:15:59.655Z,97994.06
2023-03-30T12:18:40.442Z,97988.97
2023-03-30T12:21:33.514Z,97987.47
2023-03-30T12:24:26.298Z,97975.09
2023-03-30T12:27:04.678Z,97979.19
2023-03-30T12:30:02.531Z,97977.19
2023-03-30T12:32:31.287Z,97971.19
2023-03-30T12:34:58.757Z,97976.69
2023-03-30T12:37:35.569Z,97970.12
2023-03-30T12:40:20.798Z,97965.97
2023-03-30T12:43:24.183Z,97964.47
2023-03-30T12:46:03.130Z,97962.03
2023-03-30T12:48:51.590Z,97960.72
2023-03-30T12:52:10.863Z,97949.44
2023-03-30T12:54:57.914Z,97945.69
2023-03-30T12:57:57.368Z,97948.22
2023-03-30T13:00:44.855Z,97942.53
2023-03-30T13:03:33.951Z,97942.53
2023-03-30T13:06:03.174Z,97938.50
2023-03-30T13:08:37.989Z,97936.75
2023-03-30T13:11:19.341Z,97923.75
2023-03-30T13:13:47.828Z,97934.13
2023-03-30T13:16:15.146Z,97933.53
2023-03-30T13:18:55.910Z,97926.66
2023-03-30T13:21:25.255Z,97927.56
2023-03-30T13:24:01.288Z,97916.22
2023-03-30T13:26:35.163Z,97919.31
2023-03-30T13:29:11.668Z,97922.06
2023-03-30T13:31:56.060Z,97914.13
2023-03-30T13:34:43.526Z,97918.56
2023-03-30T13:37:36.394Z,97909.28
2023-03-30T13:40:24.333Z,97905.63
2023-03-30T13:43:07.033Z,97912.81
2023-03-30T13:45:43.712Z,97904.44
2023-03-30T13:48:49.297Z,97902.91
2023-03-30T13:51:20.045Z,97890.31
2023-03-30T13:54:00.401Z,97882.81
2023-03-30T13:56:31.042Z,97871.84
2023-03-30T13:59:04.365Z,97860.00
2023-03-30T14:01:31.431Z,97851.41
2023-03-30T14:04:00.977Z,97839.53
2023-03-30T14:06:34.565Z,97837.06
2023-03-30T14:09:05.652Z,97827.63
2023-03-30T14:11:35.099Z,97827.41
2023-03-30T14:14:03.534Z,97815.75
2023-03-30T14:16:37.095Z,97805.00
2023-03-30T14:19:22.321Z,97804.00
2023-03-30T14:21:49.651Z,97800.69
2023-03-30T14:24:31.193Z,97791.09
2023-03-30T14:27:22.556Z,97780.91
2023-03-30T14:29:51.971Z,97784.06
2023-03-30T14:32:23.362Z,97766.88
2023-03-30T14:34:51.941Z,97763.03
2023-03-30T14:37:21.138Z,97761.28
2023-03-30T14:39:54.063Z,97749.41
2023-03-30T14:42:23.052Z,97748.56
2023-03-30T14:44:52.692Z,97749.41
2023-03-30T14:47:22.750Z,97746.78
2023-03-30T14:49:52.280Z,97736.06
2023-03-30T14:52:21.867Z,97728.69
2023-03-30T14:54:58.172Z,97727.13
2023-03-30T14:57:34.881Z,97724.03
2023-03-30T15:00:12.362Z,97722.31
2023-03-30T15:02:41.771Z,97710.12
2023-03-30T15:05:09.342Z,97703.53
2023-03-30T15:07:36.540Z,97704.22
2023-03-30T15:10:04.491Z,97702.47
2023-03-30T15:12:36.966Z,97692.03
2023-03-30T15:15:06.789Z,97695.38
2023-03-30T15:17:34.436Z,97697.41
2023-03-30T15:20:02.812Z,97710.34
2023-03-30T15:22:34.191Z,97711.44
2023-03-30T15:25:03.827Z,97726.34
2023-03-30T15:27:30.952Z,97730.16
2023-03-30T15:30:01.177Z,97717.31
2023-03-30T15:32:36.401Z,97715.03
2023-03-30T15:35:14.999Z,97726.75
2023-03-30T15:37:57.445Z,97714.69
2023-03-30T15:40:35.314Z,97713.34
2023-03-30T15:43:16.005Z,97714.41
2023-03-30T15:46:05.557Z,97705.50
2023-03-30T15:48:43.350Z,97700.34
2023-03-30T15:51:28.547Z,97700.16
2023-03-30T15:54:01.863Z,97685.75
2023-03-30T15:56:35.851Z,97682.22
2023-03-30T15:59:03.015Z,97680.19
2023-03-30T16:01:43.323Z,97688.19
2023-03-30T16:04:14.210Z,97683.50
2023-03-30T16:06:43.125Z,97677.28
2023-03-30T16:09:11.197Z,97687.38
2023-03-30T16:11:38.325Z,97688.97
2023-03-30T16:14:07.307Z,97690.13
2023-03-30T16:16:34.886Z,97687.78
2023-03-30T16:19:01.850Z,97692.75
2023-03-30T16:21:28.784Z,97700.69
2023-03-30T16:23:55.655Z,97704.78
2023-03-30T16:26:22.543Z,97706.59
2023-03-30T16:28:53.362Z,97708.75
2023-03-30T16:31:22.329Z,97713.28
2023-03-30T16:33:49.527Z,97713.16
2023-03-30T16:36:18.283Z,97713.03
2023-03-30T16:38:45.816Z,97725.97
2023-03-30T16:41:23.202Z,97718.34
2023-03-30T16:43:50.348Z,97704.56
2023-03-30T16:46:19.095Z,97709.00
2023-03-30T16:48:46.695Z,97706.66
2023-03-30T16:51:15.657Z,97707.97
2023-03-30T16:53:42.659Z,97709.41
2023-03-30T16:56:17.774Z,97706.44
2023-03-30T16:58:45.435Z,97708.25
2023-03-30T17:01:14.108Z,97706.16
2023-03-30T17:03:41.300Z,97699.16
2023-03-30T17:06:08.623Z,97689.41
2023-03-30T17:08:35.709Z,97696.47
2023-03-30T17:11:07.898Z,97692.53
2023-03-30T17:13:35.094Z,97698.22
2023-03-30T17:16:03.059Z,97695.81
2023-03-30T17:18:30.201Z,97704.31
2023-03-30T17:20:59.073Z,97713.81
2023-03-30T17:23:28.314Z,97703.44
2023-03-30T17:25:56.470Z,97699.84
2023-03-30T17:28:33.114Z,97698.81
2023-03-30T17:31:02.467Z,97716.28
2023-03-30T17:33:30.776Z,97717.19
2023-03-30T17:36:04.280Z,97724.31
2023-03-30T17:38:31.227Z,97724.38
2023-03-30T17:40:58.124Z,97742.22
2023-03-30T17:43:25.148Z,97742.91
2023-03-30T17:45:52.051Z,97749.47
2023-03-30T17:48:20.519Z,97767.28
2023-03-30T17:50:50.074Z,97800.84
2023-03-30T17:53:18.470Z,97831.31
2023-03-30T17:55:46.727Z,97842.63
2023-03-30T17:58:25.614Z,97858.53
2023-03-30T18:00:53.380Z,97850.66
2023-03-30T18:03:22.212Z,97864.50
2023-03-30T18:05:50.287Z,97865.94
2023-03-30T18:08:21.440Z,97862.50
2023-03-30T18:10:53.515Z,97871.91
2023-03-30T18:13:22.546Z,97866.25
2023-03-30T18:15:51.965Z,97879.66
2023-03-30T18:18:25.041Z,97872.88
2023-03-30T18:20:55.807Z,97875.59
2023-03-30T18:23:23.428Z,97870.06
2023-03-30T18:25:50.442Z,97866.72
2023-03-30T18:28:19.654Z,97870.66
2023-03-30T18:30:46.669Z,97851.91
2023-03-30T18:33:16.272Z,97859.63
2023-03-30T18:35:43.796Z,97848.78
2023-03-30T18:38:12.504Z,97841.78
2023-03-30T18:40:44.058Z,97840.25
2023-03-30T18:43:14.315Z,97842.78
2023-03-30T18:45:43.319Z,97838.94
2023-03-30T18:48:15.493Z,97832.47
2023-03-30T18:50:43.272Z,97830.81
2023-03-30T18:53:15.002Z,97832.97
2023-03-30T18:55:44.094Z,97832.22
2023-03-30T18:58:26.457Z,97826.41
2023-03-30T19:00:57.451Z,97825.28
2023-03-30T19:03:25.722Z,97831.41
2023-03-30T19:05:52.923Z,97823.84
2023-03-30T19:08:24.414Z,97820.59
2023-03-30T19:10:53.521Z,97828.19
2023-03-30T19:13:21.179Z,97824.22
2023-03-30T19:15:49.302Z,97827.63
2023-03-30T19:18:17.975Z,97823.03
2023-03-30T19:20:45.256Z,97830.22
2023-03-30T19:23:14.236Z,97821.63
2023-03-30T19:25:41.383Z,97836.44
2023-03-30T19:28:08.943Z,97828.72
2023-03-30T19:30:39.319Z,97822.06
2023-03-30T19:33:12.147Z,97817.16
2023-03-30T19:35:43.576Z,97814.72
2023-03-30T19:38:10.569Z,97819.44
2023-03-30T19:40:38.928Z,97815.25
2023-03-30T19:43:07.145Z,97806.37
2023-03-30T19:45:34.259Z,97815.06
2023-03-30T19:48:01.393Z,97815.84
2023-03-30T19:50:30.135Z,97818.53
2023-03-30T19:52:57.830Z,97819.97
2023-03-30T19:55:24.824Z,97822.69
2023-03-30T19:57:51.838Z,97828.87
2023-03-30T20:00:19.913Z,97819.13
2023-03-30T20:02:49.867Z,97828.94
2023-03-30T20:05:18.039Z,97826.13
2023-03-30T20:07:46.085Z,97822.06
2023-03-30T20:10:19.034Z,97825.47
2023-03-30T20:12:46.929Z,97821.19
2023-03-30T20:15:14.738Z,97822.22
2023-03-30T20:17:42.131Z,97827.56
2023-03-30T20:20:14.098Z,97824.88
2023-03-30T20:22:42.740Z,97818.91
2023-03-30T20:25:12.147Z,97819.66
2023-03-30T20:27:40.335Z,97813.63
2023-03-30T20:30:07.891Z,97813.28
2023-03-30T20:32:34.864Z,97809.28
2023-03-30T20:35:01.894Z,97797.91
2023-03-30T20:37:28.854Z,97796.25
2023-03-30T20:40:03.676Z,97802.09
2023-03-30T20:42:31.845Z,97809.31
2023-03-30T20:44:59.726Z,97803.69
2023-03-30T20:47:31.035Z,97804.59
2023-03-30T20:49:59.087Z,97811.00
2023-03-30T20:52:26.788Z,97812.75
2023-03-30T20:54:53.724Z,97810.91
2023-03-30T20:57:21.521Z,97813.16
2023-03-30T20:59:48.799Z,97809.94
2023-03-30T21:02:16.209Z,97812.34
2023-03-30T21:04:43.650Z,97803.94
2023-03-30T21:07:10.913Z,97803.12
2023-03-30T21:09:38.645Z,97793.78
2023-03-30T21:12:05.824Z,97781.56
2023-03-30T21:14:32.791Z,97765.69
2023-03-30T21:16:59.681Z,97757.34
2023-03-30T21:19:26.609Z,97704.75
2023-03-30T21:21:53.587Z,97660.94
2023-03-30T21:24:20.677Z,97623.84
2023-03-30T21:26:47.547Z,97625.31
2023-03-30T21:29:14.457Z,97645.41
2023-03-30T21:31:41.788Z,97655.50
2023-03-30T21:34:10.323Z,97666.84
2023-03-30T21:36:37.429Z,97701.66
2023-03-30T21:39:04.442Z,97752.75
2023-03-30T21:41:31.371Z,97790.78
2023-03-30T21:43:58.310Z,97797.84
2023-03-30T21:46:26.655Z,97795.09
2023-03-30T21:48:54.319Z,97793.97
2023-03-30T21:51:28.812Z,97789.53
2023-03-30T21:53:56.658Z,97781.22
2023-03-30T21:56:26.037Z,97788.00
2023-03-30T21:58:53.925Z,97796.63
2023-03-30T22:01:24.156Z,97807.09
2023-03-30T22:03:52.043Z,97803.41
2023-03-30T22:06:19.371Z,97790.81
2023-03-30T22:08:46.659Z,97790.53
2023-03-30T22:11:15.725Z,97794.47
2023-03-30T22:13:43.059Z,97793.56
2023-03-30T22:16:18.834Z,97785.53
2023-03-30T22:18:46.718Z,97775.00
2023-03-30T22:21:24.051Z,97781.97
2023-03-30T22:23:51.317Z,97766.28
2023-03-30T22:26:18.219Z,97771.97
2023-03-30T22:28:45.220Z,97793.25
2023-03-30T22:31:14.202Z,97800.16
2023-03-30T22:33:41.652Z,97801.47
2023-03-30T22:36:20.615Z,97798.53
2023-03-30T22:38:48.973Z,97802.34
2023-03-30T22:41:16.125Z,97795.41
2023-03-30T22:43:43.052Z,97792.19
2023-03-30T22:46:10.631Z,97797.81
2023-03-30T22:48:37.869Z,97804.28
2023-03-30T22:51:05.122Z,97799.47
2023-03-30T22:53:32.871Z,97793.03
2023-03-30T22:56:00.390Z,97800.63
2023-03-30T22:58:27.440Z,97798.72
2023-03-30T23:01:01.188Z,97807.97
2023-03-30T23:03:28.546Z,97805.47
2023-03-30T23:05:56.312Z,97811.97
2023-03-30T23:08:24.112Z,97819.13
2023-03-30T23:10:54.010Z,97815.91
2023-03-30T23:13:20.903Z,97818.50
2023-03-30T23:15:48.923Z,97806.19
2023-03-30T23:18:16.185Z,97810.00
2023-03-30T23:20:46.870Z,97818.97
2023-03-30T23:23:14.680Z,97817.69
2023-03-30T23:25:49.571Z,97810.81
2023-03-30T23:28:16.892Z,97812.38
2023-03-30T23:30:45.042Z,97817.75
2023-03-30T23:33:12.244Z,97818.06
2023-03-30T23:35:39.452Z,97803.59
2023-03-30T23:38:06.406Z,97804.16
2023-03-30T23:40:33.307Z,97810.22
2023-03-30T23:43:00.196Z,97814.22
2023-03-30T23:45:27.055Z,97816.59
2023-03-30T23:47:53.947Z,97813.91
2023-03-30T23:50:20.769Z,97805.06
2023-03-30T23:52:47.745Z,97806.66
2023-03-30T23:55:15.731Z,97794.22
2023-03-30T23:57:42.727Z,97801.00
